createdAt,value
2022-09-26T00:01:12.404Z,1.08
2022-09-26T00:03:40.458Z,1.40
2022-09-26T00:06:08.794Z,1.40
2022-09-26T00:08:37.620Z,1.45
2022-09-26T00:11:07.459Z,1.33
2022-09-26T00:13:36.642Z,1.23
2022-09-26T00:16:04.759Z,1.50
2022-09-26T00:18:34.047Z,1.30
2022-09-26T00:21:05.432Z,1.05
2022-09-26T00:23:33.136Z,1.27
2022-09-26T00:26:00.917Z,1.15
2022-09-26T00:28:28.919Z,1.10
2022-09-26T00:30:56.853Z,1.52
2022-09-26T00:33:24.996Z,1.20
2022-09-26T00:35:54.647Z,1.50
2022-09-26T00:38:22.280Z,1.48
2022-09-26T00:40:50.988Z,1.38
2022-09-26T00:43:29.313Z,1.55
2022-09-26T00:45:58.753Z,0.90
2022-09-26T00:48:26.838Z,0.80
2022-09-26T00:50:56.189Z,1.17
2022-09-26T00:53:26.681Z,1.00
2022-09-26T00:55:56.503Z,1.20
2022-09-26T00:58:27.210Z,0.93
2022-09-26T01:00:55.742Z,1.02
2022-09-26T01:03:24.110Z,0.70
2022-09-26T01:05:51.981Z,1.10
2022-09-26T01:08:23.085Z,0.30
2022-09-26T01:10:50.885Z,1.05
2022-09-26T01:13:18.471Z,0.80
2022-09-26T01:15:46.065Z,1.10
2022-09-26T01:18:13.655Z,0.90
2022-09-26T01:20:46.011Z,1.13
2022-09-26T01:23:29.935Z,1.20
2022-09-26T01:26:18.992Z,1.00
2022-09-26T01:28:55.320Z,0.95
2022-09-26T01:31:26.980Z,0.80
2022-09-26T01:33:58.497Z,1.17
2022-09-26T01:36:40.961Z,1.08
2022-09-26T01:39:14.785Z,1.10
2022-09-26T01:41:48.643Z,0.80
2022-09-26T01:44:22.008Z,1.10
2022-09-26T01:46:53.071Z,1.30
2022-09-26T01:49:23.876Z,0.90
2022-09-26T01:51:52.775Z,1.20
2022-09-26T01:54:22.789Z,1.02
2022-09-26T01:56:51.936Z,1.23
2022-09-26T01:59:21.506Z,0.70
2022-09-26T02:01:55.245Z,0.90
2022-09-26T02:04:27.973Z,1.27
2022-09-26T02:06:57.650Z,0.85
2022-09-26T02:09:27.850Z,1.15
2022-09-26T02:11:57.368Z,1.40
2022-09-26T02:14:26.980Z,1.17
2022-09-26T02:16:57.818Z,1.25
2022-09-26T02:19:27.598Z,1.15
2022-09-26T02:21:55.429Z,0.63
2022-09-26T02:24:23.353Z,0.65
2022-09-26T02:26:51.522Z,0.55
2022-09-26T02:29:22.070Z,1.10
2022-09-26T02:31:52.937Z,1.00
2022-09-26T02:34:22.002Z,1.10
2022-09-26T02:36:51.344Z,1.10
2022-09-26T02:39:18.930Z,0.60
2022-09-26T02:41:51.351Z,1.10
2022-09-26T02:44:29.020Z,1.08
2022-09-26T02:47:11.431Z,1.20
2022-09-26T02:49:55.794Z,0.43
2022-09-26T02:52:31.111Z,0.90
2022-09-26T02:55:05.105Z,1.27
2022-09-26T02:57:36.200Z,1.15
2022-09-26T03:00:06.539Z,0.82
2022-09-26T03:02:39.918Z,1.08
2022-09-26T03:05:28.333Z,1.10
2022-09-26T03:07:59.095Z,1.20
2022-09-26T03:10:29.215Z,1.33
2022-09-26T03:12:58.844Z,0.88
2022-09-26T03:15:27.317Z,1.20
2022-09-26T03:17:55.682Z,1.15
2022-09-26T03:20:24.604Z,1.17
2022-09-26T03:22:56.868Z,1.10
2022-09-26T03:25:25.737Z,1.20
2022-09-26T03:28:02.236Z,1.20
2022-09-26T03:30:30.723Z,1.33
2022-09-26T03:33:18.227Z,0.43
2022-09-26T03:35:46.139Z,1.20
2022-09-26T03:38:15.072Z,1.00
2022-09-26T03:40:49.469Z,1.13
2022-09-26T03:43:36.461Z,1.20
2022-09-26T03:46:04.675Z,1.17
2022-09-26T03:48:32.576Z,1.58
2022-09-26T03:51:02.810Z,1.13
2022-09-26T03:53:34.060Z,1.50
2022-09-26T03:56:04.952Z,0.93
2022-09-26T03:58:32.557Z,1.33
2022-09-26T04:01:03.901Z,1.02
2022-09-26T04:03:33.265Z,1.05
2022-09-26T04:06:01.831Z,1.27
2022-09-26T04:08:29.545Z,1.10
2022-09-26T04:11:03.230Z,1.20
2022-09-26T04:13:50.505Z,1.42
2022-09-26T04:16:20.127Z,0.70
2022-09-26T04:18:56.651Z,1.40
2022-09-26T04:21:26.954Z,1.17
2022-09-26T04:23:55.179Z,1.15
2022-09-26T04:26:24.863Z,1.55
2022-09-26T04:28:55.017Z,1.15
2022-09-26T04:31:25.004Z,1.20
2022-09-26T04:34:00.387Z,1.42
2022-09-26T04:36:28.527Z,1.08
2022-09-26T04:38:58.346Z,0.88
2022-09-26T04:41:28.164Z,0.52
2022-09-26T04:43:56.029Z,1.17
2022-09-26T04:46:29.716Z,1.40
2022-09-26T04:49:00.971Z,0.77
2022-09-26T04:51:29.591Z,0.82
2022-09-26T04:53:57.163Z,0.73
2022-09-26T04:56:30.864Z,1.30
2022-09-26T04:58:59.918Z,1.15
2022-09-26T05:01:34.741Z,1.60
2022-09-26T05:04:02.542Z,0.90
2022-09-26T05:06:30.381Z,1.35
2022-09-26T05:09:01.152Z,0.93
2022-09-26T05:11:53.450Z,0.80
2022-09-26T05:14:21.060Z,1.08
2022-09-26T05:16:49.977Z,0.95
2022-09-26T05:19:18.480Z,0.32
2022-09-26T05:22:06.000Z,0.52
2022-09-26T05:24:51.317Z,1.35
2022-09-26T05:27:21.200Z,1.27
2022-09-26T05:29:48.923Z,1.55
2022-09-26T05:32:20.730Z,2.00
2022-09-26T05:34:51.052Z,1.70
2022-09-26T05:37:21.333Z,1.88
2022-09-26T05:40:06.963Z,2.25
2022-09-26T05:42:39.882Z,2.13
2022-09-26T05:45:09.359Z,2.83
2022-09-26T05:47:37.438Z,2.90
2022-09-26T05:50:09.976Z,3.33
2022-09-26T05:52:39.212Z,3.03
2022-09-26T05:55:07.928Z,4.15
2022-09-26T05:57:56.838Z,2.40
2022-09-26T06:00:27.921Z,3.70
2022-09-26T06:02:56.964Z,4.05
2022-09-26T06:05:38.076Z,3.05
2022-09-26T06:08:15.977Z,3.63
2022-09-26T06:10:46.298Z,3.42
2022-09-26T06:13:15.747Z,3.42
2022-09-26T06:15:49.935Z,3.30
2022-09-26T06:18:17.698Z,3.15
2022-09-26T06:20:45.495Z,3.63
2022-09-26T06:23:14.468Z,3.58
2022-09-26T06:25:45.045Z,3.70
2022-09-26T06:28:14.900Z,4.28
2022-09-26T06:30:42.537Z,1.88
2022-09-26T06:33:31.114Z,2.85
2022-09-26T06:36:14.899Z,3.10
2022-09-26T06:38:42.561Z,3.30
2022-09-26T06:41:16.459Z,2.53
2022-09-26T06:43:45.957Z,2.65
2022-09-26T06:46:48.278Z,1.90
2022-09-26T06:49:20.196Z,2.25
2022-09-26T06:52:08.342Z,2.47
2022-09-26T06:54:35.918Z,2.25
2022-09-26T06:57:03.533Z,2.45
2022-09-26T06:59:34.264Z,1.25
2022-09-26T07:02:18.113Z,2.05
2022-09-26T07:05:05.440Z,2.08
2022-09-26T07:07:41.873Z,2.03
2022-09-26T07:10:13.449Z,1.60
2022-09-26T07:12:53.412Z,1.40
2022-09-26T07:15:24.657Z,0.80
2022-09-26T07:17:52.339Z,1.55
2022-09-26T07:20:33.129Z,1.38
2022-09-26T07:23:11.833Z,1.15
2022-09-26T07:25:45.361Z,1.70
2022-09-26T07:28:13.278Z,2.05
2022-09-26T07:30:48.831Z,1.60
2022-09-26T07:33:36.661Z,1.42
2022-09-26T07:36:08.537Z,1.48
2022-09-26T07:38:36.116Z,2.78
2022-09-26T07:41:04.588Z,1.52
2022-09-26T07:44:19.214Z,1.30
2022-09-26T07:46:40.906Z,0.93
2022-09-26T07:49:26.039Z,1.45
2022-09-26T07:51:55.090Z,1.08
2022-09-26T07:54:24.344Z,1.08
2022-09-26T07:57:10.579Z,0.52
2022-09-26T08:00:03.112Z,0.95
2022-09-26T08:02:50.795Z,0.60
2022-09-26T08:05:20.525Z,1.00
2022-09-26T08:07:50.000Z,0.93
2022-09-26T08:10:36.040Z,0.60
2022-09-26T08:13:22.250Z,1.38
2022-09-26T08:16:15.253Z,0.80
2022-09-26T08:18:45.960Z,0.70
2022-09-26T08:21:14.227Z,0.47
2022-09-26T08:23:41.792Z,1.40
2022-09-26T08:26:32.232Z,1.00
2022-09-26T08:29:11.229Z,1.10
2022-09-26T08:31:39.540Z,0.40
2022-09-26T08:34:09.070Z,0.98
2022-09-26T08:36:38.377Z,0.95
2022-09-26T08:39:06.105Z,0.80
2022-09-26T08:42:00.618Z,1.00
2022-09-26T08:44:52.965Z,1.20
2022-09-26T08:48:01.859Z,0.22
2022-09-26T08:50:40.738Z,0.88
2022-09-26T08:53:10.926Z,0.68
2022-09-26T08:55:46.030Z,0.52
2022-09-26T08:58:16.713Z,0.45
2022-09-26T09:00:45.206Z,1.02
2022-09-26T09:03:20.976Z,0.30
2022-09-26T09:05:52.900Z,0.30
2022-09-26T09:08:23.712Z,0.60
2022-09-26T09:11:24.715Z,0.73
2022-09-26T09:14:07.025Z,0.60
2022-09-26T09:17:02.493Z,0.40
2022-09-26T09:19:54.958Z,0.38
2022-09-26T09:22:48.940Z,0.70
2022-09-26T09:25:23.764Z,0.38
2022-09-26T09:28:08.400Z,0.22
2022-09-26T09:30:41.412Z,0.65
2022-09-26T09:33:29.292Z,0.88
2022-09-26T09:36:17.629Z,0.30
2022-09-26T09:39:04.397Z,0.35
2022-09-26T09:41:45.660Z,1.42
2022-09-26T09:44:25.130Z,0.30
2022-09-26T09:46:52.776Z,0.80
2022-09-26T09:49:21.149Z,0.57
2022-09-26T09:51:54.229Z,0.60
2022-09-26T09:54:34.422Z,0.80
2022-09-26T09:57:11.445Z,0.70
2022-09-26T09:59:50.409Z,0.40
2022-09-26T10:02:21.546Z,0.47
2022-09-26T10:04:53.964Z,0.50
2022-09-26T10:07:21.966Z,0.30
2022-09-26T10:10:12.592Z,0.77
2022-09-26T10:12:58.974Z,0.32
2022-09-26T10:15:58.054Z,0.60
2022-09-26T10:19:02.298Z,0.38
2022-09-26T10:21:33.862Z,0.60
2022-09-26T10:24:03.891Z,0.75
2022-09-26T10:26:47.130Z,0.90
2022-09-26T10:29:27.474Z,0.45
2022-09-26T10:31:56.480Z,0.20
2022-09-26T10:34:25.523Z,0.20
2022-09-26T10:36:53.260Z,0.40
2022-09-26T10:39:39.553Z,0.20
2022-09-26T10:42:15.885Z,0.70
2022-09-26T10:44:43.903Z,0.68
2022-09-26T10:47:22.993Z,0.75
2022-09-26T10:50:09.751Z,0.47
2022-09-26T10:52:46.934Z,0.50
2022-09-26T10:55:17.613Z,0.40
2022-09-26T10:57:47.978Z,0.63
2022-09-26T11:00:19.437Z,1.05
2022-09-26T11:02:49.212Z,0.52
2022-09-26T11:05:35.244Z,0.75
2022-09-26T11:08:21.772Z,0.32
2022-09-26T11:11:08.920Z,0.75
2022-09-26T11:13:48.077Z,0.20
2022-09-26T11:16:20.235Z,0.35
2022-09-26T11:18:59.694Z,0.60
2022-09-26T11:21:31.559Z,0.30
2022-09-26T11:24:03.693Z,0.55
2022-09-26T11:26:35.199Z,0.20
2022-09-26T11:29:11.123Z,0.40
2022-09-26T11:31:49.843Z,0.52
2022-09-26T11:34:40.826Z,0.50
2022-09-26T11:37:15.857Z,0.30
2022-09-26T11:39:51.586Z,0.52
2022-09-26T11:42:27.588Z,0.30
2022-09-26T11:44:58.493Z,0.52
2022-09-26T11:47:47.099Z,0.50
2022-09-26T11:50:39.733Z,0.20
2022-09-26T11:53:27.689Z,0.20
2022-09-26T11:56:02.745Z,0.20
2022-09-26T11:58:38.283Z,0.60
2022-09-26T12:01:11.344Z,0.30
2022-09-26T12:03:50.024Z,0.70
2022-09-26T12:06:24.596Z,0.20
2022-09-26T12:09:10.104Z,0.30
2022-09-26T12:11:42.374Z,0.65
2022-09-26T12:14:15.767Z,0.43
2022-09-26T12:16:49.399Z,0.60
2022-09-26T12:19:23.407Z,0.28
2022-09-26T12:22:13.643Z,0.40
2022-09-26T12:24:46.981Z,0.30
2022-09-26T12:27:20.257Z,0.40
2022-09-26T12:29:50.691Z,0.38
2022-09-26T12:32:25.434Z,0.30
2022-09-26T12:35:03.531Z,0.40
2022-09-26T12:37:41.072Z,1.02
2022-09-26T12:40:17.445Z,0.43
2022-09-26T12:43:13.976Z,0.50
2022-09-26T12:45:53.139Z,0.63
2022-09-26T12:48:29.691Z,0.45
2022-09-26T12:51:03.088Z,0.13
2022-09-26T12:53:48.308Z,0.20
2022-09-26T12:56:22.025Z,0.47
2022-09-26T12:59:07.591Z,0.57
2022-09-26T13:01:47.481Z,0.25
2022-09-26T13:04:25.993Z,0.40
2022-09-26T13:07:18.403Z,0.40
2022-09-26T13:10:03.001Z,0.75
2022-09-26T13:12:40.575Z,0.60
2022-09-26T13:15:20.113Z,0.40
2022-09-26T13:17:50.157Z,0.20
2022-09-26T13:20:21.089Z,0.25
2022-09-26T13:22:51.266Z,0.28
2022-09-26T13:25:20.833Z,0.28
2022-09-26T13:27:54.558Z,0.60
2022-09-26T13:30:25.285Z,0.35
2022-09-26T13:32:59.977Z,0.25
2022-09-26T13:35:29.717Z,0.22
2022-09-26T13:38:08.274Z,0.40
2022-09-26T13:40:39.935Z,0.40
2022-09-26T13:43:12.632Z,0.10
2022-09-26T13:45:46.425Z,0.28
2022-09-26T13:48:16.631Z,0.68
2022-09-26T13:50:48.820Z,0.10
2022-09-26T13:53:21.237Z,0.30
2022-09-26T13:56:03.654Z,0.30
2022-09-26T13:58:39.543Z,0.28
2022-09-26T14:01:22.062Z,0.38
2022-09-26T14:03:49.795Z,0.50
2022-09-26T14:06:30.830Z,0.30
2022-09-26T14:09:24.541Z,0.20
2022-09-26T14:12:07.171Z,0.52
2022-09-26T14:14:39.751Z,0.68
2022-09-26T14:17:22.186Z,0.40
2022-09-26T14:19:53.623Z,0.40
2022-09-26T14:22:37.569Z,0.22
2022-09-26T14:25:25.257Z,0.30
2022-09-26T14:28:09.881Z,0.47
2022-09-26T14:30:37.658Z,0.50
2022-09-26T14:33:09.949Z,0.55
2022-09-26T14:35:38.602Z,0.25
2022-09-26T14:38:10.764Z,0.60
2022-09-26T14:40:38.783Z,0.50
2022-09-26T14:43:12.607Z,0.30
2022-09-26T14:45:48.708Z,0.88
2022-09-26T14:48:33.385Z,0.38
2022-09-26T14:51:03.096Z,0.60
2022-09-26T14:53:33.965Z,0.40
2022-09-26T14:56:03.125Z,0.60
2022-09-26T14:58:33.730Z,0.60
2022-09-26T15:01:03.510Z,0.57
2022-09-26T15:03:31.438Z,0.50
2022-09-26T15:05:59.803Z,0.60
2022-09-26T15:08:28.105Z,0.60
2022-09-26T15:10:57.133Z,0.38
2022-09-26T15:13:29.562Z,0.82
2022-09-26T15:16:02.471Z,0.60
2022-09-26T15:18:38.272Z,0.70
2022-09-26T15:21:20.055Z,1.00
2022-09-26T15:23:49.312Z,0.90
2022-09-26T15:26:18.900Z,0.70
2022-09-26T15:28:48.253Z,0.50
2022-09-26T15:31:21.418Z,0.60
2022-09-26T15:33:53.041Z,0.77
2022-09-26T15:36:21.037Z,0.80
2022-09-26T15:38:49.203Z,1.15
2022-09-26T15:41:38.435Z,1.00
2022-09-26T15:44:09.262Z,0.65
2022-09-26T15:46:38.361Z,0.30
2022-09-26T15:49:13.910Z,0.77
2022-09-26T15:51:42.370Z,0.82
2022-09-26T15:54:12.243Z,1.15
2022-09-26T15:56:42.706Z,0.93
2022-09-26T15:59:12.568Z,0.95
2022-09-26T16:01:43.357Z,1.00
2022-09-26T16:04:16.889Z,1.20
2022-09-26T16:06:52.610Z,1.60
2022-09-26T16:09:22.112Z,0.90
2022-09-26T16:11:50.886Z,1.23
2022-09-26T16:14:25.716Z,0.68
2022-09-26T16:16:55.890Z,1.63
2022-09-26T16:19:30.718Z,1.60
2022-09-26T16:21:58.500Z,1.38
2022-09-26T16:24:32.285Z,1.40
2022-09-26T16:26:59.908Z,0.82
2022-09-26T16:29:31.050Z,1.35
2022-09-26T16:32:01.187Z,1.13
2022-09-26T16:34:29.958Z,1.55
2022-09-26T16:36:57.942Z,1.60
2022-09-26T16:39:26.721Z,0.10
2022-09-26T16:42:01.851Z,1.15
2022-09-26T16:44:35.334Z,1.08
2022-09-26T16:47:06.154Z,1.10
2022-09-26T16:49:40.339Z,1.25
2022-09-26T16:52:13.054Z,0.65
2022-09-26T16:54:40.683Z,0.35
2022-09-26T16:57:12.420Z,1.50
2022-09-26T16:59:40.052Z,0.90
2022-09-26T17:02:09.608Z,0.88
2022-09-26T17:04:38.014Z,0.60
2022-09-26T17:07:09.844Z,0.50
2022-09-26T17:09:38.184Z,0.60
2022-09-26T17:12:07.739Z,0.40
2022-09-26T17:14:40.409Z,0.20
2022-09-26T17:17:16.099Z,0.40
2022-09-26T17:19:44.946Z,0.57
2022-09-26T17:22:14.245Z,0.50
2022-09-26T17:24:42.406Z,0.50
2022-09-26T17:27:14.442Z,0.63
2022-09-26T17:29:43.903Z,0.80
2022-09-26T17:32:14.307Z,0.85
2022-09-26T17:34:41.913Z,0.80
2022-09-26T17:37:10.970Z,0.73
2022-09-26T17:39:38.630Z,0.75
2022-09-26T17:42:06.466Z,0.90
2022-09-26T17:44:36.973Z,0.90
2022-09-26T17:47:05.407Z,0.85
2022-09-26T17:49:35.729Z,1.10
2022-09-26T17:52:04.964Z,0.80
2022-09-26T17:54:40.631Z,0.77
2022-09-26T17:57:11.587Z,1.10
2022-09-26T17:59:42.185Z,0.90
2022-09-26T18:02:18.170Z,1.00
2022-09-26T18:04:47.309Z,0.88
2022-09-26T18:07:16.104Z,0.82
2022-09-26T18:09:44.748Z,1.05
2022-09-26T18:12:15.867Z,0.82
2022-09-26T18:14:43.636Z,0.60
2022-09-26T18:17:14.053Z,0.98
2022-09-26T18:19:42.327Z,0.77
2022-09-26T18:22:15.706Z,0.73
2022-09-26T18:24:45.563Z,0.90
2022-09-26T18:27:13.841Z,0.73
2022-09-26T18:29:43.860Z,0.75
2022-09-26T18:32:13.414Z,0.60
2022-09-26T18:34:41.094Z,0.60
2022-09-26T18:37:09.453Z,0.70
2022-09-26T18:39:38.497Z,0.93
2022-09-26T18:42:09.226Z,1.10
2022-09-26T18:44:37.316Z,0.80
2022-09-26T18:47:07.875Z,0.85
2022-09-26T18:49:35.564Z,0.50
2022-09-26T18:52:03.225Z,1.02
2022-09-26T18:54:32.261Z,0.80
2022-09-26T18:57:18.665Z,0.73
2022-09-26T18:59:46.309Z,1.00
2022-09-26T19:02:20.413Z,0.73
2022-09-26T19:04:48.143Z,1.10
2022-09-26T19:07:21.090Z,0.77
2022-09-26T19:09:49.353Z,1.33
2022-09-26T19:12:18.457Z,1.10
2022-09-26T19:14:46.081Z,1.10
2022-09-26T19:17:13.805Z,1.13
2022-09-26T19:19:41.512Z,0.90
2022-09-26T19:22:11.645Z,1.10
2022-09-26T19:24:40.598Z,0.68
2022-09-26T19:27:11.997Z,1.08
2022-09-26T19:29:42.795Z,1.42
2022-09-26T19:32:17.479Z,1.40
2022-09-26T19:34:46.617Z,1.23
2022-09-26T19:37:14.254Z,1.38
2022-09-26T19:39:42.017Z,1.63
2022-09-26T19:42:09.788Z,1.25
2022-09-26T19:44:37.413Z,1.45
2022-09-26T19:47:06.437Z,0.65
2022-09-26T19:49:34.074Z,1.10
2022-09-26T19:52:02.480Z,0.80
2022-09-26T19:54:30.155Z,0.82
2022-09-26T19:56:57.768Z,1.30
2022-09-26T19:59:27.519Z,0.82
2022-09-26T20:01:56.083Z,0.75
2022-09-26T20:04:25.817Z,0.82
2022-09-26T20:06:53.543Z,0.95
2022-09-26T20:09:21.317Z,0.85
2022-09-26T20:11:48.971Z,1.50
2022-09-26T20:14:25.459Z,1.08
2022-09-26T20:16:54.831Z,0.35
2022-09-26T20:19:25.955Z,0.70
2022-09-26T20:21:55.172Z,1.33
2022-09-26T20:24:22.789Z,0.60
2022-09-26T20:26:50.425Z,0.95
2022-09-26T20:29:18.039Z,0.70
2022-09-26T20:31:47.306Z,0.75
2022-09-26T20:34:16.976Z,0.60
2022-09-26T20:36:46.568Z,0.70
2022-09-26T20:39:17.417Z,0.57
2022-09-26T20:41:45.407Z,0.35
2022-09-26T20:44:14.901Z,0.63
2022-09-26T20:46:46.489Z,0.40
2022-09-26T20:49:16.220Z,0.73
2022-09-26T20:51:44.176Z,0.47
2022-09-26T20:54:16.676Z,0.50
2022-09-26T20:56:47.519Z,0.70
2022-09-26T20:59:15.255Z,0.50
2022-09-26T21:01:42.991Z,0.50
2022-09-26T21:04:13.695Z,0.80
2022-09-26T21:06:41.511Z,0.50
2022-09-26T21:09:11.904Z,1.35
2022-09-26T21:11:41.455Z,1.00
2022-09-26T21:14:10.491Z,0.65
2022-09-26T21:16:42.646Z,0.70
2022-09-26T21:19:13.230Z,0.70
2022-09-26T21:21:40.912Z,0.80
2022-09-26T21:24:19.517Z,0.70
2022-09-26T21:26:49.265Z,0.80
2022-09-26T21:29:18.607Z,0.82
2022-09-26T21:31:49.042Z,0.50
2022-09-26T21:34:19.352Z,0.60
2022-09-26T21:36:47.765Z,0.30
2022-09-26T21:39:17.173Z,0.40
2022-09-26T21:41:45.242Z,0.50
2022-09-26T21:44:14.829Z,0.90
2022-09-26T21:46:43.854Z,0.60
2022-09-26T21:49:11.474Z,0.70
2022-09-26T21:51:39.796Z,0.52
2022-09-26T21:54:09.283Z,0.60
2022-09-26T21:56:38.733Z,0.50
2022-09-26T21:59:07.791Z,0.70
2022-09-26T22:01:35.532Z,0.75
2022-09-26T22:04:05.965Z,0.60
2022-09-26T22:06:33.753Z,0.50
2022-09-26T22:09:01.397Z,0.50
2022-09-26T22:11:29.186Z,0.60
2022-09-26T22:13:56.818Z,0.73
2022-09-26T22:16:25.467Z,0.63
2022-09-26T22:18:53.231Z,0.65
2022-09-26T22:21:22.290Z,0.77
2022-09-26T22:23:50.238Z,0.75
2022-09-26T22:26:18.056Z,0.80
2022-09-26T22:28:46.092Z,0.40
2022-09-26T22:31:13.823Z,0.90
2022-09-26T22:33:42.050Z,1.15
2022-09-26T22:36:09.756Z,0.95
2022-09-26T22:38:39.381Z,1.00
2022-09-26T22:41:07.972Z,0.70
2022-09-26T22:43:36.094Z,0.28
2022-09-26T22:46:04.326Z,0.80
2022-09-26T22:48:33.013Z,0.70
2022-09-26T22:51:00.882Z,0.55
2022-09-26T22:53:28.798Z,1.35
2022-09-26T22:55:58.341Z,0.90
2022-09-26T22:58:27.072Z,0.60
2022-09-26T23:00:54.717Z,0.70
2022-09-26T23:03:22.365Z,0.93
2022-09-26T23:05:51.204Z,0.60
2022-09-26T23:08:18.815Z,0.73
2022-09-26T23:10:49.310Z,0.63
2022-09-26T23:13:18.357Z,0.55
2022-09-26T23:15:46.353Z,0.73
2022-09-26T23:18:14.262Z,0.45
2022-09-26T23:20:42.157Z,0.63
2022-09-26T23:23:10.762Z,0.13
2022-09-26T23:25:38.412Z,0.28
2022-09-26T23:28:06.026Z,0.85
2022-09-26T23:30:35.043Z,0.40
2022-09-26T23:33:02.669Z,0.70
2022-09-26T23:35:30.371Z,0.60
2022-09-26T23:37:58.521Z,0.50
2022-09-26T23:40:26.204Z,1.10
2022-09-26T23:42:53.892Z,0.30
2022-09-26T23:45:21.547Z,0.52
2022-09-26T23:47:50.600Z,0.80
2022-09-26T23:50:18.353Z,0.60
2022-09-26T23:52:45.946Z,0.70
2022-09-26T23:55:13.994Z,0.47
2022-09-26T23:57:41.673Z,0.60
